首页
METAR-TAF:

METAR-TAF

机场 :

贝尔加莫, 意大利

纬度: 45-40N, 经度: 009-42E, 海拔: 238米

当前天气观测

该预报发布于14分钟前的15:20 UTC
风速6节,风向,在南转南东西之间变化
温度 30°C
湿度 40%
气压 1014 hPa
能见度10公里或以上
散云层高于5000英尺

METAR: LIME 181520Z 19006KT 150V270 9999 SCT050 30/15 Q1014 NOSIG

时间: 17:34 (15:34 UTC)

预报

该预报发布于4小时和34分钟前的11:00 UTC
预报有效从18日的 12点(UTC)到 19日的 12点(UTC)
风速5节,风向多变
能见度10公里或以上
散云层高于7000英尺

TAF: LIME 181100Z 1812/1912 VRB05KT 9999 SCT070

超过4000个机场的气象观测和天气预报(METAR&TAF报告)。

可查询的气象台以黄色和红色小点在地图上表示。

将鼠标移到小点上方,可查看气象台名称。

然后点击查看天气观测和预报。

如需切换地图:点击带黑十字的绿色按钮放大地图;点击带横线的绿色按钮缩小地图;或者点击绿色箭头查看邻近地区的地图。


METAR-TAF: